الصفحة الرئيسية
METAR-TAF:

METAR-TAF

مطار :

أنادير, روسيا

دائرة عرض: 64-47N, خط طول: 177-34E, ارتفاع: 62 متر

مراقبة الطقس الحالي

تاريخ ووقت الإصدار 54 دقيقة قبل الساعة 00:00UTC
ريح 12 عقدة من الغرب
درجة الحرارة 23°درجة مئوية
الرطوبة 53%
ضغط 1009 hPa
الرؤية 10 كم أو أكثر
غيوم قليلة على ارتفاع 4600 قدم

METAR: UHMA 180000Z 26006MPS 9999 FEW046 23/13 Q1009 R20/60D NOSIG RMK MID 25006G09MPS END R20/25005MPS QFE751/1002

زمن: 12:54 (00:54 UTC)

توقعات

تاريخ ووقت الإصدار 2ساعات و 3 دقيقة قبل الساعة 22:51UTC
التوقعات صالحة من18 الساعة 00 UTC إلى 18 الساعة 24 UTC
ريح 6 عقدة من الجنوب الغربي تتزايد حتى 16 عقدة
الرؤية 10 كم أو أكثر
غيوم متفرقة على ارتفاع 3300 قدم
مؤقت
من 18 الساعة 00 UTC إلى 18 الساعة 12 UTC
ريح 17 عقدة من الغرب تتزايد حتى 27 عقدة
غيوم متفرقة على ارتفاع 2000 قدم, مزنة ركامية.
مؤقت
من 18 الساعة 12 UTC إلى 18 الساعة 24 UTC
ريح 12 عقدة من الجنوب الشرقي

TAF: UHMA 172251Z 1800/1824 23003G08MPS 9999 SCT033 TEMPO 1800/1812 28009G14MPS SCT020CB TEMPO 1812/1824 14006MPS

أرصاد الطقس والتوقعات من أكثر من 4000 مطار (تقارير الطقس للمطار METAR والتنبؤ بالطقس بالمطارTAF).

المحطات المتاحة هي النقط الصفراء والحمراء على الخريطة.

حرك المؤشر فوق النقطة لمعرفة اسم المحطة.

ثم انقر لمعرفة أرصاد وتوقعات الطقس.

لتغيير الخارطة: اضغط على الأزرار الخضراء مع رمز الصليب الأسود للتكبير. على الزر الأخضر مع شرطة للتصغير، أو على الأسهم الخضراء للخرائط المجاورة.


METAR-TAF: